createdAt,value
2019-06-15T00:00:37.680Z,14.93
2019-06-15T00:03:41.547Z,13.17
2019-06-15T00:06:45.405Z,10.37
2019-06-15T00:09:49.571Z,12.37
2019-06-15T00:12:53.506Z,15.10
2019-06-15T00:15:57.382Z,12.77
2019-06-15T00:19:01.230Z,17.13
2019-06-15T00:22:05.160Z,14.17
2019-06-15T00:25:09.182Z,16.80
2019-06-15T00:28:13.017Z,13.80
2019-06-15T00:31:16.901Z,12.53
2019-06-15T00:34:20.727Z,13.37
2019-06-15T00:37:24.627Z,11.40
2019-06-15T00:40:28.534Z,13.37
2019-06-15T00:43:32.473Z,14.83
2019-06-15T00:46:36.366Z,18.23
2019-06-15T00:49:40.342Z,16.20
2019-06-15T00:52:44.346Z,16.57
2019-06-15T00:55:48.183Z,19.57
2019-06-15T00:58:52.131Z,15.53
2019-06-15T01:01:56.016Z,17.43
2019-06-15T01:04:59.850Z,18.47
2019-06-15T01:08:03.681Z,19.57
2019-06-15T01:11:07.626Z,18.43
2019-06-15T01:14:11.445Z,17.93
2019-06-15T01:17:15.391Z,22.50
2019-06-15T01:20:19.382Z,18.40
2019-06-15T01:23:23.219Z,17.13
2019-06-15T01:26:27.045Z,16.33
2019-06-15T01:29:30.869Z,26.20
2019-06-15T01:32:34.739Z,16.67
2019-06-15T01:35:38.561Z,15.97
2019-06-15T01:38:42.400Z,15.50
2019-06-15T01:41:46.268Z,17.27
2019-06-15T01:44:50.142Z,18.47
2019-06-15T01:47:54.076Z,15.60
2019-06-15T01:50:57.910Z,18.57
2019-06-15T01:54:01.846Z,15.77
2019-06-15T01:57:05.856Z,13.40
2019-06-15T02:00:11.752Z,13.37
2019-06-15T02:03:15.566Z,16.50
2019-06-15T02:06:19.420Z,14.70
2019-06-15T02:09:23.241Z,14.37
2019-06-15T02:12:27.102Z,17.13
2019-06-15T02:15:31.301Z,13.57
2019-06-15T02:18:36.690Z,19.90
2019-06-15T02:21:40.463Z,12.07
2019-06-15T02:24:44.326Z,17.03
2019-06-15T02:27:48.141Z,15.37
2019-06-15T02:30:51.998Z,14.90
2019-06-15T02:33:55.841Z,12.53
2019-06-15T02:36:59.782Z,14.73
2019-06-15T02:40:04.109Z,11.27
2019-06-15T02:43:08.074Z,11.57
2019-06-15T02:46:12.089Z,12.50
2019-06-15T02:49:16.073Z,14.73
2019-06-15T02:52:20.014Z,11.50
2019-06-15T02:55:24.017Z,11.83
2019-06-15T02:58:27.945Z,13.20
2019-06-15T03:01:31.929Z,14.87
2019-06-15T03:04:35.796Z,12.60
2019-06-15T03:07:39.695Z,14.93
2019-06-15T03:10:44.323Z,14.67
2019-06-15T03:13:48.291Z,17.10
2019-06-15T03:16:52.145Z,12.93
2019-06-15T03:19:56.023Z,12.97
2019-06-15T03:22:59.874Z,12.60
2019-06-15T03:26:05.763Z,11.40
2019-06-15T03:29:09.505Z,11.17
2019-06-15T03:32:13.355Z,13.43
2019-06-15T03:35:17.959Z,10.43
2019-06-15T03:38:21.851Z,12.07
2019-06-15T03:41:25.675Z,8.93
2019-06-15T03:44:29.573Z,9.43
2019-06-15T03:47:33.417Z,13.13
2019-06-15T03:50:37.338Z,13.53
2019-06-15T03:53:41.169Z,17.20
2019-06-15T03:56:45.028Z,9.60
2019-06-15T03:59:48.871Z,10.63
2019-06-15T04:02:52.697Z,13.83
2019-06-15T04:05:56.615Z,13.60
2019-06-15T04:09:00.520Z,12.80
2019-06-15T04:12:04.574Z,11.77
2019-06-15T04:15:08.625Z,10.20
2019-06-15T04:18:12.487Z,9.70
2019-06-15T04:21:16.346Z,11.17
2019-06-15T04:24:20.183Z,11.20
2019-06-15T04:27:24.109Z,10.00
2019-06-15T04:30:28.032Z,14.03
2019-06-15T04:33:31.945Z,12.37
2019-06-15T04:36:35.805Z,13.00
2019-06-15T04:39:39.679Z,10.37
2019-06-15T04:42:43.530Z,10.87
2019-06-15T04:45:47.435Z,11.97
2019-06-15T04:48:51.260Z,15.17
2019-06-15T04:51:55.102Z,15.53
2019-06-15T04:54:58.954Z,12.40
2019-06-15T04:58:02.890Z,13.67
2019-06-15T05:01:06.796Z,15.90
2019-06-15T05:04:10.650Z,10.80
2019-06-15T05:07:14.526Z,17.43
2019-06-15T05:10:18.508Z,13.80
2019-06-15T05:13:22.436Z,12.20
2019-06-15T05:16:26.358Z,12.83
2019-06-15T05:19:30.258Z,12.27
2019-06-15T05:22:34.273Z,13.53
2019-06-15T05:25:38.119Z,10.07
2019-06-15T05:28:41.978Z,13.37
2019-06-15T05:31:45.805Z,12.37
2019-06-15T05:34:49.795Z,13.57
2019-06-15T05:37:53.757Z,14.93
2019-06-15T05:40:57.580Z,10.47
2019-06-15T05:44:01.448Z,11.17
2019-06-15T05:47:05.529Z,10.87
2019-06-15T05:50:09.465Z,10.40
2019-06-15T05:53:13.382Z,15.53
2019-06-15T05:56:17.242Z,13.63
2019-06-15T05:59:21.084Z,13.73
2019-06-15T06:02:25.024Z,14.07
2019-06-15T06:05:28.874Z,16.03
2019-06-15T06:08:32.815Z,15.40
2019-06-15T06:11:36.727Z,12.83
2019-06-15T06:14:40.547Z,14.97
2019-06-15T06:17:44.474Z,13.97
2019-06-15T06:20:48.292Z,13.90
2019-06-15T06:23:52.184Z,11.57
2019-06-15T06:26:56.048Z,13.20
2019-06-15T06:29:59.936Z,14.73
2019-06-15T06:33:03.907Z,17.97
2019-06-15T06:36:07.753Z,11.53
2019-06-15T06:39:11.603Z,14.03
2019-06-15T06:42:15.428Z,12.60
2019-06-15T06:45:20.023Z,13.77
2019-06-15T06:48:23.865Z,13.57
2019-06-15T06:51:27.707Z,13.97
2019-06-15T06:54:31.513Z,14.63
2019-06-15T06:57:35.523Z,12.80
2019-06-15T07:00:39.320Z,14.60
2019-06-15T07:03:43.138Z,17.80
2019-06-15T07:06:46.960Z,17.43
2019-06-15T07:09:50.786Z,12.43
2019-06-15T07:12:54.665Z,12.90
2019-06-15T07:15:58.577Z,11.50
2019-06-15T07:19:02.411Z,13.73
2019-06-15T07:22:06.234Z,13.63
2019-06-15T07:25:10.310Z,12.00
2019-06-15T07:28:14.201Z,12.80
2019-06-15T07:31:18.148Z,12.27
2019-06-15T07:34:21.983Z,12.87
2019-06-15T07:37:25.997Z,13.43
2019-06-15T07:40:30.012Z,19.03
2019-06-15T07:43:33.871Z,13.90
2019-06-15T07:46:37.856Z,12.57
2019-06-15T07:49:41.698Z,12.87
2019-06-15T07:52:45.521Z,13.30
2019-06-15T07:55:49.510Z,14.17
2019-06-15T07:58:53.357Z,14.80
2019-06-15T08:01:57.320Z,16.37
2019-06-15T08:05:01.153Z,13.30
2019-06-15T08:08:05.150Z,16.80
2019-06-15T08:11:09.039Z,17.60
2019-06-15T08:14:12.952Z,14.10
2019-06-15T08:17:16.963Z,16.47
2019-06-15T08:20:24.883Z,17.17
2019-06-15T08:23:28.688Z,16.53
2019-06-15T08:26:32.596Z,16.00
2019-06-15T08:29:36.453Z,15.37
2019-06-15T08:32:40.346Z,16.47
2019-06-15T08:35:44.176Z,15.67
2019-06-15T08:38:48.074Z,15.67
2019-06-15T08:41:51.897Z,18.07
2019-06-15T08:44:55.823Z,16.70
2019-06-15T08:47:59.671Z,20.27
2019-06-15T08:51:03.509Z,14.67
2019-06-15T08:54:07.329Z,15.07
2019-06-15T08:57:11.140Z,17.83
2019-06-15T09:00:15.431Z,18.73
2019-06-15T09:03:19.258Z,19.33
2019-06-15T09:06:23.094Z,20.33
2019-06-15T09:09:26.977Z,72.97
2019-06-15T09:12:30.849Z,20.63
2019-06-15T09:16:00.317Z,22.20
2019-06-15T09:19:04.208Z,20.23
2019-06-15T09:22:08.145Z,18.83
2019-06-15T09:25:12.115Z,21.33
2019-06-15T09:28:15.964Z,19.10
2019-06-15T09:31:19.799Z,22.27
2019-06-15T09:34:23.648Z,26.47
2019-06-15T09:37:27.546Z,19.70
2019-06-15T09:40:31.524Z,21.27
2019-06-15T09:43:35.355Z,23.43
2019-06-15T09:46:39.182Z,16.67
2019-06-15T09:49:43.019Z,22.43
2019-06-15T09:52:46.832Z,17.40
2019-06-15T09:55:50.663Z,18.53
2019-06-15T09:58:54.525Z,15.73
2019-06-15T10:01:58.380Z,19.33
2019-06-15T10:05:02.212Z,18.87
2019-06-15T10:08:06.199Z,19.90
2019-06-15T10:11:10.093Z,15.03
2019-06-15T10:14:13.935Z,14.23
2019-06-15T10:17:17.930Z,17.30
2019-06-15T10:20:21.908Z,16.27
2019-06-15T10:23:25.709Z,15.73
2019-06-15T10:26:29.562Z,17.23
2019-06-15T10:29:41.939Z,19.03
2019-06-15T10:32:39.255Z,19.53
2019-06-15T10:35:43.085Z,19.50
2019-06-15T10:38:46.927Z,13.23
2019-06-15T10:41:50.758Z,17.10
2019-06-15T10:44:54.597Z,13.60
2019-06-15T10:47:58.393Z,10.00
2019-06-15T10:51:02.455Z,11.17
2019-06-15T10:54:06.379Z,11.53
2019-06-15T10:57:10.176Z,12.90
2019-06-15T11:00:14.583Z,11.87
2019-06-15T11:03:18.555Z,14.13
2019-06-15T11:06:22.411Z,9.93
2019-06-15T11:09:26.319Z,9.50
2019-06-15T11:12:45.107Z,11.30
2019-06-15T11:15:36.409Z,10.90
2019-06-15T11:18:40.317Z,10.23
2019-06-15T11:21:44.151Z,9.57
2019-06-15T11:24:47.992Z,10.30
2019-06-15T11:27:51.851Z,8.03
2019-06-15T11:30:55.659Z,9.00
2019-06-15T11:33:59.505Z,9.93
2019-06-15T11:37:03.336Z,12.23
2019-06-15T11:40:07.710Z,10.43
2019-06-15T11:43:11.631Z,9.83
2019-06-15T11:46:15.447Z,9.80
2019-06-15T11:49:19.342Z,8.67
2019-06-15T11:52:23.244Z,8.67
2019-06-15T11:55:39.090Z,12.53
2019-06-15T11:58:32.639Z,9.87
2019-06-15T12:01:36.568Z,11.73
2019-06-15T12:04:40.432Z,11.73
2019-06-15T12:07:44.307Z,14.50
2019-06-15T12:10:48.267Z,10.07
2019-06-15T12:13:52.093Z,9.10
2019-06-15T12:16:55.994Z,11.33
2019-06-15T12:19:59.795Z,11.00
2019-06-15T12:23:03.640Z,10.87
2019-06-15T12:26:07.595Z,8.43
2019-06-15T12:29:11.515Z,14.87
2019-06-15T12:32:15.362Z,11.80
2019-06-15T12:35:19.249Z,12.47
2019-06-15T12:38:23.081Z,12.73
2019-06-15T12:41:26.993Z,9.23
2019-06-15T12:44:30.869Z,8.23
2019-06-15T12:47:34.753Z,8.07
2019-06-15T12:50:38.574Z,12.00
2019-06-15T12:53:42.399Z,10.23
2019-06-15T12:56:46.191Z,9.87
2019-06-15T12:59:50.115Z,9.73
2019-06-15T13:02:53.922Z,10.20
2019-06-15T13:05:57.756Z,11.93
2019-06-15T13:09:01.668Z,26.50
2019-06-15T13:12:05.658Z,15.00
2019-06-15T13:15:09.681Z,18.37
2019-06-15T13:18:13.593Z,15.27
2019-06-15T13:21:17.509Z,14.73
2019-06-15T13:24:21.401Z,15.87
2019-06-15T13:27:25.318Z,16.97
2019-06-15T13:30:29.215Z,16.17
2019-06-15T13:33:33.033Z,21.37
2019-06-15T13:36:36.837Z,13.47
2019-06-15T13:39:40.783Z,17.00
2019-06-15T13:42:44.686Z,16.63
2019-06-15T13:45:48.580Z,16.27
2019-06-15T13:48:52.465Z,17.20
2019-06-15T13:51:56.282Z,15.80
2019-06-15T13:55:00.085Z,9.97
2019-06-15T13:58:03.976Z,12.60
2019-06-15T14:01:07.820Z,15.40
2019-06-15T14:04:11.639Z,11.70
2019-06-15T14:07:15.487Z,14.77
2019-06-15T14:10:19.499Z,13.90
2019-06-15T14:13:23.376Z,12.40
2019-06-15T14:16:27.189Z,23.07
2019-06-15T14:19:31.044Z,22.73
2019-06-15T14:22:34.870Z,11.20
2019-06-15T14:25:38.715Z,11.40
2019-06-15T14:28:42.680Z,12.63
2019-06-15T14:31:50.068Z,18.13
2019-06-15T14:34:52.070Z,12.20
2019-06-15T14:37:56.025Z,13.37
2019-06-15T14:40:59.899Z,15.17
2019-06-15T14:44:03.857Z,14.80
2019-06-15T14:47:07.759Z,17.33
2019-06-15T14:50:11.742Z,11.43
2019-06-15T14:53:15.550Z,14.67
2019-06-15T14:56:19.508Z,14.77
2019-06-15T14:59:23.406Z,15.77
2019-06-15T15:02:27.215Z,14.93
2019-06-15T15:05:31.030Z,16.60
2019-06-15T15:08:36.732Z,16.00
2019-06-15T15:11:40.408Z,16.90
2019-06-15T15:14:46.781Z,15.93
2019-06-15T15:17:49.936Z,18.23
2019-06-15T15:20:56.324Z,15.10
2019-06-15T15:23:59.396Z,20.13
2019-06-15T15:27:03.256Z,21.47
2019-06-15T15:30:09.015Z,18.00
2019-06-15T15:33:12.836Z,17.17
2019-06-15T15:36:17.050Z,20.47
2019-06-15T15:39:20.968Z,13.43
2019-06-15T15:42:26.618Z,18.27
2019-06-15T15:45:30.403Z,20.53
2019-06-15T15:48:36.324Z,19.03
2019-06-15T15:51:39.845Z,18.73
2019-06-15T15:54:43.681Z,17.03
2019-06-15T15:57:47.516Z,25.03
2019-06-15T16:00:51.342Z,24.77
2019-06-15T16:03:56.270Z,18.60
2019-06-15T16:07:00.280Z,19.50
2019-06-15T16:10:06.248Z,23.33
2019-06-15T16:13:10.187Z,26.13
2019-06-15T16:16:16.201Z,25.67
2019-06-15T16:19:19.629Z,21.03
2019-06-15T16:22:23.431Z,26.10
2019-06-15T16:25:27.283Z,23.40
2019-06-15T16:28:31.146Z,27.80
2019-06-15T16:31:37.231Z,23.90
2019-06-15T16:34:40.564Z,21.33
2019-06-15T16:37:44.429Z,26.13
2019-06-15T16:40:48.383Z,21.83
2019-06-15T16:43:52.197Z,22.70
2019-06-15T16:46:56.674Z,17.80
2019-06-15T16:50:00.508Z,16.83
2019-06-15T16:53:04.510Z,17.00
2019-06-15T16:56:08.424Z,16.80
2019-06-15T16:59:12.453Z,13.30
2019-06-15T17:02:17.138Z,12.33
2019-06-15T17:05:21.332Z,13.07
2019-06-15T17:08:25.247Z,12.10
2019-06-15T17:11:29.077Z,11.10
2019-06-15T17:14:32.910Z,9.30
2019-06-15T17:17:37.022Z,12.20
2019-06-15T17:20:50.982Z,7.83
2019-06-15T17:23:57.061Z,9.73
2019-06-15T17:27:00.507Z,9.80
2019-06-15T17:30:07.058Z,9.27
2019-06-15T17:33:10.790Z,7.80
2019-06-15T17:36:14.618Z,6.20
2019-06-15T17:39:18.576Z,7.63
2019-06-15T17:42:22.480Z,8.40
2019-06-15T17:45:26.742Z,7.13
2019-06-15T17:48:30.687Z,6.90
2019-06-15T17:51:36.813Z,8.07
2019-06-15T17:54:40.130Z,10.37
2019-06-15T17:57:46.383Z,10.07
2019-06-15T18:00:49.647Z,8.23
2019-06-15T18:03:55.394Z,13.27
2019-06-15T18:06:59.007Z,6.03
2019-06-15T18:10:02.925Z,5.77
2019-06-15T18:13:07.129Z,5.53
2019-06-15T18:16:11.007Z,7.53
2019-06-15T18:19:17.102Z,7.40
2019-06-15T18:22:20.399Z,7.27
2019-06-15T18:25:26.542Z,6.40
2019-06-15T18:28:29.946Z,5.90
2019-06-15T18:31:36.303Z,5.50
2019-06-15T18:34:39.373Z,6.67
2019-06-15T18:37:43.284Z,5.63
2019-06-15T18:40:47.082Z,7.67
2019-06-15T18:43:50.895Z,6.80
2019-06-15T18:46:56.378Z,7.93
2019-06-15T18:50:00.335Z,9.07
2019-06-15T18:53:07.108Z,8.33
2019-06-15T18:56:11.268Z,11.87
2019-06-15T18:59:16.868Z,10.40
2019-06-15T19:02:20.943Z,16.53
2019-06-15T19:05:26.074Z,14.13
2019-06-15T19:08:30.094Z,15.17
2019-06-15T19:11:33.912Z,20.07
2019-06-15T19:14:37.741Z,19.87
2019-06-15T19:17:41.631Z,23.27
2019-06-15T19:20:45.620Z,26.83
2019-06-15T19:23:49.437Z,31.23
2019-06-15T19:26:53.275Z,28.33
2019-06-15T19:29:57.095Z,28.03
2019-06-15T19:33:00.920Z,28.33
2019-06-15T19:36:06.326Z,24.87
2019-06-15T19:39:10.286Z,21.17
2019-06-15T19:42:14.139Z,22.80
2019-06-15T19:45:20.809Z,19.90
2019-06-15T19:48:26.799Z,18.33
2019-06-15T19:51:30.262Z,15.80
2019-06-15T19:54:36.423Z,17.07
2019-06-15T19:57:39.672Z,16.00
2019-06-15T20:00:43.507Z,16.63
2019-06-15T20:03:47.343Z,16.87
2019-06-15T20:06:51.183Z,17.33
2019-06-15T20:09:57.031Z,18.93
2019-06-15T20:13:00.577Z,20.23
2019-06-15T20:16:05.287Z,16.63
2019-06-15T20:19:10.627Z,19.00
2019-06-15T20:22:14.439Z,13.30
2019-06-15T20:25:18.441Z,13.83
2019-06-15T20:28:22.319Z,12.83
2019-06-15T20:31:26.167Z,16.93
2019-06-15T20:34:29.987Z,14.30
2019-06-15T20:37:33.802Z,11.07
2019-06-15T20:40:37.698Z,10.37
2019-06-15T20:43:41.516Z,7.73
2019-06-15T20:46:46.440Z,8.50
2019-06-15T20:49:50.452Z,8.43
2019-06-15T20:52:56.446Z,8.80
2019-06-15T20:55:59.803Z,6.50
2019-06-15T20:59:06.138Z,8.23
2019-06-15T21:02:09.254Z,6.87
2019-06-15T21:05:33.023Z,9.13
2019-06-15T21:08:20.244Z,5.03
2019-06-15T21:11:26.393Z,7.43
2019-06-15T21:14:29.614Z,8.63
2019-06-15T21:17:33.416Z,6.03
2019-06-15T21:20:37.309Z,4.83
2019-06-15T21:23:41.149Z,5.30
2019-06-15T21:26:45.000Z,6.17
2019-06-15T21:29:48.816Z,5.90
2019-06-15T21:32:52.641Z,10.03
2019-06-15T21:35:56.784Z,8.20
2019-06-15T21:39:00.836Z,4.97
2019-06-15T21:42:04.768Z,4.13
2019-06-15T21:45:09.281Z,5.27
2019-06-15T21:48:13.079Z,4.80
2019-06-15T21:51:16.917Z,7.10
2019-06-15T21:54:20.822Z,8.23
2019-06-15T21:57:26.877Z,5.33
2019-06-15T22:00:42.825Z,7.07
2019-06-15T22:03:46.756Z,7.07
2019-06-15T22:06:50.644Z,11.40
2019-06-15T22:09:54.505Z,8.90
2019-06-15T22:12:58.451Z,9.83
2019-06-15T22:16:02.365Z,10.00
2019-06-15T22:19:06.323Z,9.20
2019-06-15T22:22:10.130Z,12.17
2019-06-15T22:25:15.961Z,8.70
2019-06-15T22:28:19.670Z,9.73
2019-06-15T22:31:23.481Z,8.27
2019-06-15T22:34:27.449Z,8.90
2019-06-15T22:37:31.293Z,10.17
2019-06-15T22:40:36.340Z,10.47
2019-06-15T22:43:40.439Z,10.93
2019-06-15T22:46:46.483Z,10.97
2019-06-15T22:49:49.827Z,9.23
2019-06-15T22:52:53.633Z,11.80
2019-06-15T22:55:57.464Z,12.67
2019-06-15T22:59:01.287Z,10.97
2019-06-15T23:02:07.071Z,14.33
2019-06-15T23:05:10.877Z,15.03
2019-06-15T23:08:16.285Z,9.53
2019-06-15T23:11:20.311Z,9.27
2019-06-15T23:14:26.056Z,11.87
2019-06-15T23:17:29.672Z,8.27
2019-06-15T23:20:33.566Z,8.80
2019-06-15T23:23:37.406Z,8.73
2019-06-15T23:26:41.235Z,14.30
2019-06-15T23:29:46.337Z,11.57
2019-06-15T23:32:50.235Z,9.20
2019-06-15T23:35:59.465Z,10.40
2019-06-15T23:39:05.424Z,9.70
2019-06-15T23:42:08.985Z,8.80
2019-06-15T23:45:15.991Z,10.60
2019-06-15T23:48:19.381Z,12.90
2019-06-15T23:51:23.220Z,10.37
2019-06-15T23:54:27.903Z,10.73
2019-06-15T23:57:31.930Z,8.60
